Time;durP1;ratioP1;P1;durP2;ratioP2;P2;SDS_P1;SDS_P2;PMS_P1;PMS_P2;Temp;Humidity;BMP_temperature;BMP_pressure;BME280_temperature;BME280_humidity;BME280_pressure;Samples;Min_cycle;Max_cycle;Signal;HPM_P1;HPM_P2
2023/04/07 00:00:26;;;;;;;37.78;25.38;;;6.10;99.90;;;;;;5025803;28;20046;-48
2023/04/07 00:02:52;;;;;;;42.88;25.92;;;6.30;99.90;;;;;;5026477;28;20515;-50
2023/04/07 00:05:18;;;;;;;38.65;25.30;;;6.20;99.90;;;;;;5025643;28;20069;-50
2023/04/07 00:07:44;;;;;;;38.90;25.45;;;6.10;99.90;;;;;;5026155;28;20045;-47
2023/04/07 00:10:10;;;;;;;38.92;24.60;;;6.10;99.90;;;;;;5023443;28;20199;-48
2023/04/07 00:12:35;;;;;;;41.30;25.33;;;6.20;99.90;;;;;;5022901;28;20049;-49
2023/04/07 00:15:01;;;;;;;36.10;24.05;;;6.10;99.90;;;;;;5024753;28;20045;-50
2023/04/07 00:17:27;;;;;;;47.97;26.63;;;6.40;99.90;;;;;;5025728;28;20582;-50
2023/04/07 00:19:52;;;;;;;38.10;25.63;;;6.30;99.90;;;;;;5025706;28;20483;-47
2023/04/07 00:22:18;;;;;;;37.60;25.30;;;7.40;99.90;;;;;;5022123;28;20499;-49
2023/04/07 00:24:44;;;;;;;37.20;24.52;;;6.10;99.90;;;;;;5023792;28;20033;-50
2023/04/07 00:27:10;;;;;;;40.38;25.98;;;6.20;99.90;;;;;;5025026;28;20034;-50
2023/04/07 00:29:36;;;;;;;36.97;24.27;;;7.30;99.90;;;;;;5024456;28;20038;-50
2023/04/07 00:32:01;;;;;;;51.28;28.40;;;6.40;99.90;;;;;;5022132;28;20099;-50
2023/04/07 00:34:27;;;;;;;54.08;28.17;;;7.30;99.90;;;;;;5024597;28;20069;-47
2023/04/07 00:36:53;;;;;;;44.58;26.27;;;6.10;99.90;;;;;;5024347;28;20103;-48
2023/04/07 00:39:19;;;;;;;40.92;24.85;;;7.60;99.90;;;;;;5023247;28;20054;-48
2023/04/07 00:41:46;;;;;;;37.40;24.67;;;6.40;99.90;;;;;;5024925;28;20923;-48
2023/04/07 00:44:12;;;;;;;40.28;25.90;;;7.50;99.90;;;;;;5024633;28;20087;-52
2023/04/07 00:46:38;;;;;;;40.42;25.98;;;6.80;99.90;;;;;;5025478;28;20061;-48
2023/04/07 00:49:05;;;;;;;44.08;26.95;;;6.20;99.90;;;;;;5025223;28;20072;-49
2023/04/07 00:51:31;;;;;;;40.85;27.80;;;6.30;99.90;;;;;;5023644;28;20559;-50
2023/04/07 00:53:57;;;;;;;44.55;26.35;;;6.30;99.90;;;;;;5022719;28;20069;-48
2023/04/07 00:56:23;;;;;;;43.58;26.67;;;7.50;99.90;;;;;;5025475;28;20442;-51
2023/04/07 00:58:49;;;;;;;43.13;27.13;;;7.10;99.90;;;;;;5024562;28;20046;-50
2023/04/07 01:01:21;;;;;;;43.65;27.58;;;6.10;99.90;;;;;;5024709;28;20044;-49
2023/04/07 01:04:02;;;;;;;46.05;28.05;;;6.30;99.90;;;;;;5024111;28;20039;-48
2023/04/07 01:06:34;;;;;;;43.92;26.73;;;6.40;99.90;;;;;;5023065;28;20230;-49
2023/04/07 01:09:27;;;;;;;47.83;29.27;;;7.60;99.90;;;;;;5024850;28;20037;-48
2023/04/07 01:12:03;;;;;;;46.05;27.50;;;6.30;99.90;;;;;;5024355;28;20140;-48
2023/04/07 01:14:35;;;;;;;44.55;28.55;;;6.40;99.90;;;;;;5023224;28;20128;-48
2023/04/07 01:17:02;;;;;;;43.75;27.92;;;6.90;99.90;;;;;;5037496;28;20072;-49
2023/04/07 01:19:43;;;;;;;54.40;29.67;;;6.90;99.90;;;;;;5022028;28;20504;-48
2023/04/07 01:22:12;;;;;;;45.25;28.08;;;6.30;99.90;;;;;;5023310;28;20049;-48
2023/04/07 01:24:54;;;;;;;51.50;29.40;;;6.20;99.90;;;;;;5025580;28;20383;-49
2023/04/07 01:27:31;;;;;;;43.45;27.73;;;6.30;99.90;;;;;;5025246;28;20367;-51
2023/04/07 01:30:01;;;;;;;48.17;27.65;;;6.30;99.90;;;;;;5021912;28;20814;-48
2023/04/07 01:32:27;;;;;;;52.38;29.58;;;6.10;99.90;;;;;;5019916;28;20040;-51
2023/04/07 01:34:54;;;;;;;45.90;28.23;;;7.40;99.90;;;;;;5025040;28;20057;-49
2023/04/07 01:37:21;;;;;;;49.90;29.67;;;6.20;99.90;;;;;;5024873;28;20037;-48
2023/04/07 01:39:47;;;;;;;50.08;29.15;;;6.20;99.90;;;;;;5024699;28;20479;-48
2023/04/07 01:42:14;;;;;;;51.55;29.50;;;7.20;99.90;;;;;;5024339;28;20041;-48
2023/04/07 01:44:41;;;;;;;52.55;30.02;;;7.20;99.90;;;;;;5021038;28;20045;-51
2023/04/07 01:47:07;;;;;;;59.90;31.30;;;6.20;99.90;;;;;;5024283;28;20049;-48
2023/04/07 01:49:35;;;;;;;53.60;30.33;;;6.10;99.90;;;;;;5024910;28;20056;-49
2023/04/07 01:52:01;;;;;;;53.67;32.13;;;7.60;99.90;;;;;;5024468;28;20121;-49
2023/04/07 01:54:28;;;;;;;60.10;33.30;;;6.40;99.90;;;;;;5028201;28;20073;-49
2023/04/07 01:56:53;;;;;;;63.97;32.42;;;6.30;99.90;;;;;;5026217;28;20061;-50
2023/04/07 01:59:19;;;;;;;56.63;31.42;;;7.50;99.90;;;;;;5043830;28;20446;-48
2023/04/07 02:01:45;;;;;;;55.92;30.80;;;6.70;99.90;;;;;;5027304;28;20037;-50
2023/04/07 02:04:37;;;;;;;61.95;32.38;;;7.00;99.90;;;;;;5027692;28;20034;-48
2023/04/07 02:07:07;;;;;;;;;;;6.40;99.90;;;;;;5021262;28;20084;-50
2023/04/07 02:09:35;;;;;;;;;;;6.30;99.90;;;;;;5027715;28;19978;-49
2023/04/07 02:12:03;;;;;;;;;;;6.50;99.90;;;;;;5026970;28;19960;-50
2023/04/07 02:14:28;;;;;;;;;;;6.30;99.90;;;;;;5027008;28;20347;-47
2023/04/07 02:16:54;;;;;;;;;;;6.80;99.90;;;;;;5027981;28;20031;-48
2023/04/07 02:19:20;;;;;;;;;;;7.60;99.90;;;;;;5027712;28;19970;-48
2023/04/07 02:21:47;;;;;;;;;;;6.20;99.90;;;;;;5025196;28;20051;-49
2023/04/07 02:24:13;;;;;;;;;;;6.20;99.90;;;;;;5026157;28;19924;-50
2023/04/07 02:26:38;;;;;;;;;;;6.30;99.90;;;;;;5027891;28;19917;-51
2023/04/07 02:29:04;;;;;;;;;;;7.50;99.90;;;;;;5028332;28;19992;-49
2023/04/07 02:31:30;;;;;;;;;;;7.60;99.90;;;;;;5028159;28;20374;-48
2023/04/07 02:33:55;;;;;;;;;;;6.20;99.90;;;;;;5019363;28;19921;-47
2023/04/07 02:36:21;;;;;;;;;;;6.30;99.90;;;;;;5022357;28;19921;-48
2023/04/07 02:38:47;;;;;;;;;;;7.50;99.90;;;;;;5027235;28;19924;-49
2023/04/07 02:41:12;;;;;;;;;;;6.80;99.90;;;;;;5025950;28;19917;-47
2023/04/07 02:43:38;;;;;;;;;;;6.20;99.90;;;;;;5026330;28;19964;-49
2023/04/07 02:46:03;;;;;;;;;;;7.00;99.90;;;;;;5023346;28;20643;-48
2023/04/07 02:48:29;;;;;;;;;;;6.40;99.90;;;;;;5024137;28;19917;-49
2023/04/07 02:50:54;;;;;;;;;;;6.40;99.90;;;;;;5023617;28;20600;-47
2023/04/07 02:53:20;;;;;;;;;;;6.30;99.90;;;;;;5026323;28;19999;-47
2023/04/07 02:55:46;;;;;;;;;;;7.60;99.90;;;;;;5026883;28;19925;-48
2023/04/07 02:58:11;;;;;;;;;;;7.40;99.90;;;;;;5026505;28;19939;-50
2023/04/07 03:00:37;;;;;;;;;;;7.50;99.90;;;;;;5024691;28;19948;-49
2023/04/07 03:03:02;;;;;;;;;;;6.40;99.90;;;;;;5020136;28;19921;-50
2023/04/07 03:05:28;;;;;;;;;;;6.30;99.90;;;;;;5025568;28;20375;-48
2023/04/07 03:07:53;;;;;;;;;;;7.00;99.90;;;;;;5026714;28;19964;-49
2023/04/07 03:10:19;;;;;;;;;;;6.30;99.90;;;;;;5025979;28;19921;-48
2023/04/07 03:12:45;;;;;;;;;;;6.30;99.90;;;;;;5024491;28;19917;-49
2023/04/07 03:15:10;;;;;;;;;;;7.20;99.90;;;;;;5025537;28;19929;-51
2023/04/07 03:17:36;;;;;;;;;;;6.30;99.90;;;;;;5026244;28;19917;-48
2023/04/07 03:20:02;;;;;;;;;;;7.70;99.90;;;;;;5025033;28;20005;-49
2023/04/07 03:22:27;;;;;;;;;;;6.40;99.90;;;;;;5026718;28;19917;-49
2023/04/07 03:24:53;;;;;;;;;;;6.30;99.90;;;;;;5026727;28;19971;-47
2023/04/07 03:27:19;;;;;;;;;;;6.30;99.90;;;;;;5040733;28;19987;-50
2023/04/07 03:29:46;;;;;;;;;;;6.70;99.90;;;;;;5025624;28;19928;-48
2023/04/07 03:32:11;;;;;;;;;;;7.60;99.90;;;;;;5026747;28;19921;-47
2023/04/07 03:34:37;;;;;;;;;;;6.30;99.90;;;;;;4988101;28;1094596;-47
2023/04/07 03:37:03;;;;;;;;;;;6.30;99.90;;;;;;5027647;28;19964;-49
2023/04/07 03:39:28;;;;;;;;;;;7.40;99.90;;;;;;5026693;28;20414;-48
2023/04/07 03:41:55;;;;;;;;;;;7.30;99.90;;;;;;5025994;28;20172;-48
2023/04/07 03:44:20;;;;;;;;;;;6.30;99.90;;;;;;5025146;28;19916;-47
2023/04/07 03:46:47;;;;;;;;;;;6.40;99.90;;;;;;5026807;28;20334;-48
2023/04/07 03:49:13;;;;;;;;;;;7.50;99.90;;;;;;5027094;28;19920;-47
2023/04/07 03:51:38;;;;;;;;;;;7.50;99.90;;;;;;5025158;28;19924;-48
2023/04/07 03:54:04;;;;;;;;;;;6.70;99.90;;;;;;5025975;28;19995;-49
2023/04/07 03:56:30;;;;;;;;;;;6.30;99.90;;;;;;5025490;28;19931;-47
2023/04/07 03:58:55;;;;;;;;;;;6.20;99.90;;;;;;5027099;28;19964;-48
2023/04/07 04:01:21;;;;;;;;;;;6.70;99.90;;;;;;5026832;28;20394;-49
2023/04/07 04:03:48;;;;;;;;;;;7.10;99.90;;;;;;5027114;28;20263;-49
2023/04/07 04:06:13;;;;;;;;;;;6.90;99.90;;;;;;5025896;28;19982;-49
2023/04/07 04:08:39;;;;;;;;;;;6.80;99.90;;;;;;5026493;28;20391;-50
2023/04/07 04:11:04;;;;;;;;;;;6.40;99.90;;;;;;5022602;28;19925;-48
2023/04/07 04:13:31;;;;;;;;;;;6.10;99.90;;;;;;5024423;28;19921;-51
2023/04/07 04:15:56;;;;;;;;;;;7.40;99.90;;;;;;5026305;28;19921;-48
2023/04/07 04:18:22;;;;;;;;;;;6.10;99.90;;;;;;5026160;28;20271;-48
2023/04/07 04:20:48;;;;;;;;;;;6.20;99.90;;;;;;5026199;28;20522;-48
2023/04/07 04:23:14;;;;;;;;;;;7.50;99.90;;;;;;5024167;28;20385;-47
2023/04/07 04:25:39;;;;;;;;;;;6.10;99.90;;;;;;5025376;28;20087;-49
2023/04/07 04:28:05;;;;;;;;;;;8.40;99.90;;;;;;5026810;28;19921;-50
2023/04/07 04:30:31;;;;;;;;;;;6.60;99.90;;;;;;5027309;28;19916;-49
2023/04/07 04:32:56;;;;;;;;;;;6.10;99.90;;;;;;5027020;28;19939;-50
2023/04/07 04:35:22;;;;;;;;;;;6.10;99.90;;;;;;5025481;28;20058;-49
2023/04/07 04:37:47;;;;;;;;;;;6.10;99.90;;;;;;5025024;28;19925;-47
2023/04/07 04:40:13;;;;;;;;;;;6.10;99.90;;;;;;5024558;28;19932;-48
2023/04/07 04:42:39;;;;;;;;;;;6.20;99.90;;;;;;5026146;28;19917;-48
2023/04/07 04:45:05;;;;;;;;;;;6.60;99.90;;;;;;5040548;28;19920;-50
2023/04/07 04:47:31;;;;;;;;;;;6.10;99.90;;;;;;5026029;28;19971;-48
2023/04/07 04:49:56;;;;;;;;;;;7.40;99.90;;;;;;5025361;28;20072;-48
2023/04/07 04:52:22;;;;;;;;;;;6.10;99.90;;;;;;5019601;28;19962;-51
2023/04/07 04:54:47;;;;;;;;;;;7.40;99.90;;;;;;5026478;28;20012;-48
2023/04/07 04:57:13;;;;;;;;;;;6.10;99.90;;;;;;5025973;28;20031;-47
2023/04/07 04:59:38;;;;;;;;;;;6.60;99.90;;;;;;5025655;28;19920;-47
2023/04/07 05:02:04;;;;;;;;;;;6.80;99.90;;;;;;5023388;28;19928;-51
2023/04/07 05:04:30;;;;;;;;;;;7.10;99.90;;;;;;5025826;28;19983;-50
2023/04/07 05:06:56;;;;;;;;;;;6.10;99.90;;;;;;5023248;28;20636;-49
2023/04/07 05:09:21;;;;;;;;;;;6.60;99.90;;;;;;5041283;28;20007;-49
2023/04/07 05:11:47;;;;;;;;;;;5.90;99.90;;;;;;5025561;28;20446;-48
2023/04/07 05:14:12;;;;;;;;;;;6.10;99.90;;;;;;5025552;28;19943;-49
2023/04/07 05:16:38;;;;;;;;;;;6.10;99.90;;;;;;5024822;28;19928;-50
2023/04/07 05:19:03;;;;;;;;;;;6.10;99.90;;;;;;5025158;28;20477;-47
2023/04/07 05:21:29;;;;;;;;;;;6.20;99.90;;;;;;5019968;28;19939;-47
2023/04/07 05:23:55;;;;;;;;;;;7.10;99.90;;;;;;5023703;28;20039;-48
2023/04/07 05:26:20;;;;;;;;;;;6.20;99.90;;;;;;5023734;28;19921;-48
2023/04/07 05:28:46;;;;;;;;;;;7.20;99.90;;;;;;5025281;28;19921;-49
2023/04/07 05:31:11;;;;;;;;;;;6.10;99.90;;;;;;5025497;28;19928;-48
2023/04/07 05:33:37;;;;;;;;;;;6.60;99.90;;;;;;5024797;28;19920;-47
2023/04/07 05:36:03;;;;;;;;;;;6.30;99.90;;;;;;5023531;28;20273;-49
2023/04/07 05:38:28;;;;;;;;;;;6.00;99.90;;;;;;5025181;28;20463;-47
2023/04/07 05:40:54;;;;;;;;;;;6.00;99.90;;;;;;5025820;28;20282;-48
2023/04/07 05:43:19;;;;;;;;;;;6.10;99.90;;;;;;5025538;28;20343;-49
2023/04/07 05:45:45;;;;;;;;;;;6.00;99.90;;;;;;5024402;28;20321;-47
2023/04/07 05:48:11;;;;;;;;;;;6.80;99.90;;;;;;5025258;28;20334;-49
2023/04/07 05:50:36;;;;;;;;;;;6.70;99.90;;;;;;5022053;28;19925;-50
2023/04/07 05:53:02;;;;;;;;;;;7.30;99.90;;;;;;5025637;28;19983;-47
2023/04/07 05:55:27;;;;;;;;;;;7.30;99.90;;;;;;5025207;28;19935;-49
2023/04/07 05:57:53;;;;;;;;;;;7.50;99.90;;;;;;5025016;28;19936;-50
2023/04/07 06:00:19;;;;;;;;;;;7.30;99.90;;;;;;5022376;28;19929;-49
2023/04/07 06:02:45;;;;;;;;;;;6.20;99.90;;;;;;5025164;28;19921;-47
2023/04/07 06:05:10;;;;;;;;;;;6.90;99.90;;;;;;5024531;28;19927;-50
2023/04/07 06:07:36;;;;;;;;;;;6.20;99.90;;;;;;5025051;28;19928;-48
2023/04/07 06:10:02;;;;;;;;;;;6.20;99.90;;;;;;5020768;28;19971;-48
2023/04/07 06:12:27;;;;;;;;;;;6.20;99.90;;;;;;5020825;28;20011;-48
2023/04/07 06:14:54;;;;;;;;;;;6.60;99.90;;;;;;5022981;28;19932;-47
2023/04/07 06:17:19;;;;;;;;;;;6.30;99.90;;;;;;5024691;28;19924;-47
2023/04/07 06:19:45;;;;;;;;;;;7.30;99.90;;;;;;5025506;28;20668;-50
2023/04/07 06:22:11;;;;;;;;;;;6.40;99.90;;;;;;5025724;28;20711;-47
2023/04/07 06:24:36;;;;;;;;;;;6.70;99.90;;;;;;5025439;28;20283;-49
2023/04/07 06:27:02;;;;;;;;;;;7.40;99.90;;;;;;5025118;28;19954;-46
2023/04/07 06:29:28;;;;;;;;;;;6.40;99.90;;;;;;5024872;28;19921;-47
2023/04/07 06:31:54;;;;;;;;;;;8.00;99.90;;;;;;5024712;28;20256;-46
2023/04/07 06:34:20;;;;;;;;;;;7.50;99.90;;;;;;5024256;28;19924;-47
2023/04/07 06:36:45;;;;;;;;;;;7.60;99.90;;;;;;5023946;28;20005;-48
2023/04/07 06:39:11;;;;;;;;;;;6.50;99.90;;;;;;5025383;28;19928;-49
2023/04/07 06:41:37;;;;;;;;;;;6.80;99.90;;;;;;5020266;28;19924;-49
2023/04/07 06:44:03;;;;;;;;;;;6.50;99.90;;;;;;5027522;28;19967;-50
2023/04/07 06:46:29;;;;;;;;;;;6.60;99.90;;;;;;5021013;28;19921;-47
2023/04/07 06:48:54;;;;;;;;;;;7.40;99.90;;;;;;5025310;28;19963;-48
2023/04/07 06:51:20;;;;;;;;;;;6.80;99.90;;;;;;5026460;28;19975;-48
2023/04/07 06:53:47;;;;;;;;;;;6.70;99.90;;;;;;5027158;28;19995;-46
2023/04/07 06:56:13;;;;;;;;;;;7.60;99.90;;;;;;5027205;28;19937;-47
2023/04/07 06:58:39;;;;;;;;;;;7.00;99.90;;;;;;5025128;28;19921;-49
2023/04/07 07:01:05;;;;;;;;;;;8.00;99.90;;;;;;5024110;28;19921;-47
2023/04/07 07:03:31;;;;;;;;;;;7.00;99.90;;;;;;5026570;28;19999;-47
2023/04/07 07:06:00;;;;;;;;;;;7.10;99.90;;;;;;5026395;28;20619;-47
2023/04/07 07:08:26;;;;;;;;;;;7.10;99.90;;;;;;5025746;28;20334;-47
2023/04/07 07:10:52;;;;;;;;;;;7.70;99.90;;;;;;5025211;28;19929;-48
2023/04/07 07:13:18;;;;;;;;;;;8.10;99.90;;;;;;5024720;28;19921;-46
2023/04/07 07:15:44;;;;;;;;;;;7.10;99.90;;;;;;5025861;28;20521;-48
2023/04/07 07:18:09;;;;;;;;;;;8.70;99.90;;;;;;5025420;28;20011;-46
2023/04/07 07:20:35;;;;;;;;;;;8.30;99.90;;;;;;5024783;28;19925;-48
2023/04/07 07:23:00;;;;;;;;;;;8.80;99.90;;;;;;5025326;28;20397;-48
2023/04/07 07:25:26;;;;;;;;;;;7.60;99.90;;;;;;5025803;28;19917;-46
2023/04/07 07:27:52;;;;;;;;;;;8.00;99.90;;;;;;5026822;28;19921;-49
2023/04/07 07:30:19;;;;;;;;;;;7.70;99.90;;;;;;5022494;28;19924;-46
2023/04/07 07:32:45;;;;;;;;;;;7.90;99.90;;;;;;5025668;28;19925;-50
2023/04/07 07:35:10;;;;;;;;;;;8.30;99.90;;;;;;5026271;28;19955;-47
2023/04/07 07:37:36;;;;;;;;;;;7.90;99.90;;;;;;5028075;28;19925;-47
2023/04/07 07:40:01;;;;;;;;;;;8.10;99.90;;;;;;5028001;28;20588;-47
2023/04/07 07:42:28;;;;;;;;;;;8.00;99.90;;;;;;5027983;28;19925;-46
2023/04/07 07:44:54;;;;;;;;;;;7.90;99.90;;;;;;5028210;28;19971;-50
2023/04/07 07:47:19;;;;;;;;;;;7.90;99.90;;;;;;5028083;28;19921;-47
2023/04/07 07:49:45;;;;;;;;;;;8.20;99.90;;;;;;5040748;28;19956;-49
2023/04/07 07:52:11;;;;;;;;;;;8.00;99.90;;;;;;5027401;28;19921;-46
2023/04/07 07:54:36;;;;;;;;;;;8.30;99.90;;;;;;5027283;28;19971;-47
2023/04/07 07:57:02;;;;;;;;;;;8.00;99.90;;;;;;5027063;28;19921;-48
2023/04/07 07:59:27;;;;;;;;;;;7.90;99.90;;;;;;5027453;28;20339;-50
2023/04/07 08:01:53;;;;;;;;;;;7.90;99.90;;;;;;5021790;28;19996;-49
2023/04/07 08:04:19;;;;;;;;;;;8.00;99.90;;;;;;5017241;28;19982;-47
2023/04/07 08:06:45;;;;;;;;;;;8.30;99.90;;;;;;5023121;28;19971;-48
2023/04/07 08:09:10;;;;;;;;;;;8.00;99.90;;;;;;5023884;28;20569;-47
2023/04/07 08:11:36;;;;;;;;;;;7.90;99.90;;;;;;5023225;28;19917;-48
2023/04/07 08:14:01;;;;;;;;;;;8.00;99.90;;;;;;5021274;28;19929;-51
2023/04/07 08:16:27;;;;;;;;;;;8.00;99.90;;;;;;5022008;28;20470;-48
2023/04/07 08:18:53;;;;;;;;;;;8.30;99.90;;;;;;5013759;28;19932;-47
2023/04/07 08:21:19;;;;;;;;;;;8.10;99.90;;;;;;5024596;28;19968;-50
2023/04/07 08:23:45;;;;;;;;;;;8.10;99.90;;;;;;5027015;28;20340;-49
2023/04/07 08:26:11;;;;;;;;;;;8.00;99.90;;;;;;5026451;28;19921;-48
2023/04/07 08:28:36;;;;;;;;;;;7.90;99.90;;;;;;5026758;28;19920;-48
2023/04/07 08:31:02;;;;;;;;;;;7.90;99.90;;;;;;5026373;28;19921;-47
2023/04/07 08:33:27;;;;;;;;;;;8.20;99.90;;;;;;5025112;28;19920;-47
2023/04/07 08:35:53;;;;;;;;;;;10.40;99.90;;;;;;4988628;28;19936;-56
2023/04/07 08:38:19;;;;;;;;;;;6.90;99.90;;;;;;4996499;28;19956;-55
2023/04/07 08:40:44;;;;;;;;;;;8.10;99.90;;;;;;5002625;28;19921;-53
2023/04/07 08:43:11;;;;;;;;;;;8.90;99.90;;;;;;5013721;28;19978;-52
2023/04/07 08:45:38;;;;;;;;;;;8.00;99.90;;;;;;5016421;28;20361;-51
2023/04/07 08:48:05;;;;;;;;;;;8.00;99.90;;;;;;5014083;28;19956;-55
2023/04/07 08:50:31;;;;;;;;;;;8.10;99.90;;;;;;5014479;28;19929;-52
2023/04/07 08:52:59;;;;;;;;;;;8.20;99.90;;;;;;5016200;28;19974;-53
2023/04/07 08:55:25;;;;;;;;;;;8.20;99.90;;;;;;5016116;28;20499;-60
2023/04/07 08:57:51;;;;;;;;;;;8.10;99.90;;;;;;5017541;28;19928;-57
2023/04/07 09:00:17;;;;;;;;;;;8.10;99.90;;;;;;5018574;28;20333;-57
2023/04/07 09:02:44;;;;;;;;;;;8.00;99.90;;;;;;5008768;28;19921;-58
2023/04/07 09:05:10;;;;;;;;;;;8.10;99.90;;;;;;5015906;28;19924;-49
2023/04/07 09:07:37;;;;;;;;;;;8.80;99.90;;;;;;5006037;28;20330;-46
2023/04/07 09:10:03;;;;;;;;;;;8.20;99.90;;;;;;5019421;28;19970;-44
2023/04/07 09:12:29;;;;;;;;;;;7.90;99.90;;;;;;5020007;28;19956;-47
2023/04/07 09:14:55;;;;;;;;;;;7.90;99.90;;;;;;5019918;28;19929;-48
2023/04/07 09:17:21;;;;;;;;;;;8.00;99.90;;;;;;5008470;28;19963;-55
2023/04/07 09:19:47;;;;;;;;;;;8.10;99.90;;;;;;5028652;28;20040;-47
2023/04/07 09:22:13;;;;;;;;;;;8.10;99.90;;;;;;5000822;28;19921;-48
2023/04/07 09:24:40;;;;;;;;;;;8.00;99.90;;;;;;5033474;28;20000;-45
2023/04/07 09:27:09;;;;;;;;;;;8.30;99.90;;;;;;5016188;28;20343;-47
2023/04/07 09:29:42;;;;;;;;;;;8.30;99.90;;;;;;5017279;28;19928;-43
2023/04/07 09:32:07;;;;;;;;;;;8.60;99.90;;;;;;5016673;28;19924;-46
2023/04/07 09:34:35;;;;;;;;;;;8.70;99.90;;;;;;5017837;28;19917;-47
2023/04/07 09:37:01;;;;;;;;;;;8.80;99.90;;;;;;4994652;28;19928;-53
2023/04/07 09:39:27;;;;;;;;;;;8.50;99.90;;;;;;5021318;28;19963;-53
2023/04/07 09:41:52;;;;;;;;;;;9.30;99.90;;;;;;4984743;28;20024;-48
2023/04/07 09:44:18;;;;;;;;;;;10.00;99.90;;;;;;5029508;28;19964;-48
2023/04/07 09:46:47;;;;;;;;;;;9.50;99.90;;;;;;5018738;28;19928;-44
2023/04/07 09:49:26;;;;;;;;;;;10.60;99.90;;;;;;5012566;28;19932;-45
2023/04/07 09:51:56;;;;;;;;;;;10.70;99.90;;;;;;5032861;28;19916;-48
2023/04/07 09:54:40;;;;;;;;;;;10.60;99.90;;;;;;5033246;28;20011;-47
2023/04/07 09:57:10;;;;;;;;;;;10.40;99.90;;;;;;5018098;28;19925;-51
2023/04/07 09:59:38;;;;;;;;;;;10.10;99.90;;;;;;5020421;28;19917;-46
2023/04/07 10:02:04;;;;;;;;;;;10.00;99.90;;;;;;5008710;28;19924;-46
2023/04/07 10:04:30;;;;;;;;;;;9.70;99.90;;;;;;5010860;28;19921;-45
2023/04/07 10:06:56;;;;;;;;;;;9.70;99.90;;;;;;5016309;28;19977;-47
2023/04/07 10:09:22;;;;;;;;;;;10.00;99.90;;;;;;5017870;28;19917;-46
2023/04/07 10:11:49;;;;;;;;;;;10.00;99.90;;;;;;5017915;28;19920;-48
2023/04/07 10:14:15;;;;;;;;;;;10.20;99.90;;;;;;5025469;28;19917;-48
2023/04/07 10:16:41;;;;;;;;;;;10.20;99.90;;;;;;5028370;28;19925;-48
2023/04/07 10:19:06;;;;;;;;;;;10.30;99.90;;;;;;5028814;28;20057;-51
2023/04/07 10:21:38;;;;;;;;;;;10.30;99.90;;;;;;5029863;28;20462;-48
2023/04/07 10:24:03;;;;;;;;;;;10.30;99.90;;;;;;5029825;28;20540;-49
2023/04/07 10:26:30;;;;;;;;;;;10.30;99.90;;;;;;5029504;28;19932;-48
2023/04/07 10:28:59;;;;;;;;;;;10.10;99.90;;;;;;5030086;28;20263;-47
2023/04/07 10:31:25;;;;;;;;;;;10.10;99.90;;;;;;5028169;28;19921;-47
2023/04/07 10:33:52;;;;;;;;;;;10.40;99.90;;;;;;5023567;28;19979;-48
2023/04/07 10:36:19;;;;;;;;;;;10.00;99.90;;;;;;5029253;28;20470;-48
2023/04/07 10:39:08;;;;;;;;;;;10.20;99.90;;;;;;4991780;28;19951;-48
2023/04/07 10:41:37;;;;;;;;;;;10.40;99.90;;;;;;4997682;28;20008;-49
2023/04/07 10:44:03;;;;;;;;;;;10.60;99.90;;;;;;5013169;28;19927;-47
2023/04/07 10:46:43;;;;;;;;;;;10.50;99.90;;;;;;5028995;28;19924;-51
2023/04/07 10:49:09;;;;;;;;;;;10.60;99.90;;;;;;5027684;28;19932;-48
2023/04/07 10:51:36;;;;;;;;;;;10.60;99.90;;;;;;5029061;28;20040;-47
2023/04/07 10:54:21;;;;;;;;;;;10.60;99.90;;;;;;5029020;28;19968;-48
2023/04/07 10:57:02;;;;;;;;;;;10.60;99.90;;;;;;5029350;28;19956;-48
2023/04/07 10:59:28;;;;;;;;;;;10.50;99.90;;;;;;5026042;28;19936;-48
2023/04/07 11:02:16;;;;;;;;;;;10.60;99.90;;;;;;5028924;28;19928;-51
2023/04/07 11:04:42;;;;;;;;;;;10.70;99.90;;;;;;5029044;28;19979;-49
2023/04/07 11:07:08;;;;;;;;;;;11.00;99.90;;;;;;5028803;28;19956;-47
2023/04/07 11:09:34;;;;;;;;;;;10.90;99.90;;;;;;5028640;28;19967;-48
2023/04/07 11:11:59;;;;;;;;;;;11.00;99.90;;;;;;5029018;28;19933;-50
2023/04/07 11:14:26;;;;;;;;;;;11.10;99.90;;;;;;5026497;28;19925;-49
2023/04/07 11:16:52;;;;;;;;;;;11.30;99.90;;;;;;5028646;28;19921;-49
2023/04/07 11:19:17;;;;;;;;;;;11.40;99.90;;;;;;5026975;28;19921;-47
2023/04/07 11:21:43;;;;;;;;;;;11.40;99.90;;;;;;5028445;28;19921;-50
2023/04/07 11:24:09;;;;;;;;;;;11.50;99.90;;;;;;5027354;28;19924;-48
2023/04/07 11:26:41;;;;;;;;;;;11.50;99.90;;;;;;5027708;28;19928;-50
2023/04/07 11:29:06;;;;;;;;;;;11.50;99.90;;;;;;5028082;28;19964;-49
2023/04/07 11:31:32;;;;;;;;;;;11.60;99.90;;;;;;5027749;28;19967;-47
2023/04/07 11:33:59;;;;;;;;;;;11.70;99.90;;;;;;5028083;28;20370;-48
2023/04/07 11:36:27;;;;;;;;;;;12.00;99.90;;;;;;5028847;28;19925;-49
2023/04/07 11:38:54;;;;;;;;;;;12.20;99.90;;;;;;5048216;28;19983;-47
2023/04/07 11:41:20;;;;;;;;;;;12.20;99.90;;;;;;5047867;28;19921;-50
2023/04/07 11:43:46;;;;;;;;;;;12.30;99.90;;;;;;5048085;28;19943;-48
2023/04/07 11:46:12;;;;;;;;;;;12.50;99.90;;;;;;5047590;28;19956;-47
2023/04/07 11:48:39;;;;;;;;;;;12.60;99.90;;;;;;5028257;28;19924;-47
2023/04/07 11:51:05;;;;;;;;;;;13.10;99.90;;;;;;5047483;28;19985;-47
2023/04/07 11:53:32;;;;;;;;;;;13.00;99.90;;;;;;5047791;28;19927;-50
2023/04/07 11:55:59;;;;;;;;;;;13.10;99.90;;;;;;5047513;28;19920;-47
2023/04/07 11:58:24;;;;;;;;;;;13.10;99.90;;;;;;5047336;28;20430;-49
2023/04/07 12:00:57;;;;;;;;;;;13.20;99.90;;;;;;5047910;28;19920;-47
2023/04/07 12:03:23;;;;;;;;;;;13.30;99.90;;;;;;5041380;28;19921;-49
2023/04/07 12:05:48;;;;;;;;;;;13.30;99.90;;;;;;5047812;28;19944;-48
2023/04/07 12:08:15;;;;;;;;;;;13.40;99.90;;;;;;5047591;28;20524;-49
2023/04/07 12:10:41;;;;;;;;;;;13.40;99.90;;;;;;5045749;28;19966;-49
2023/04/07 12:13:07;;;;;;;;;;;13.40;99.90;;;;;;5043145;28;19956;-51
2023/04/07 12:15:33;;;;;;;;;;;13.40;99.90;;;;;;5047179;28;19921;-49
2023/04/07 12:17:58;;;;;;;;;;;13.40;99.90;;;;;;5046939;28;19963;-49
2023/04/07 12:20:24;;;;;;;;;;;13.50;99.90;;;;;;5045908;28;19968;-50
2023/04/07 12:22:50;;;;;;;;;;;13.50;99.90;;;;;;5047141;28;19924;-52
2023/04/07 12:25:16;;;;;;;;;;;13.60;99.90;;;;;;5047027;28;19921;-49
2023/04/07 12:27:41;;;;;;;;;;;13.50;99.90;;;;;;5047039;28;19921;-48
2023/04/07 12:30:07;;;;;;;;;;;13.60;99.90;;;;;;5046846;28;19978;-49
2023/04/07 12:32:33;;;;;;;;;;;13.70;99.90;;;;;;5046842;28;19921;-47
2023/04/07 12:34:58;;;;;;;;;;;13.80;99.90;;;;;;5046560;28;20385;-45
2023/04/07 12:37:24;;;;;;;;;;;14.00;99.90;;;;;;5046263;28;19932;-47
2023/04/07 12:39:49;;;;;;;;;;;14.20;99.90;;;;;;5046667;28;19970;-46
2023/04/07 12:42:15;;;;;;;;;;;14.20;99.90;;;;;;5046602;28;19974;-45
2023/04/07 12:44:40;;;;;;;;;;;14.10;99.90;;;;;;5046411;28;19924;-48
2023/04/07 12:47:07;;;;;;;;;;;14.30;99.90;;;;;;5047693;28;19920;-46
2023/04/07 12:49:32;;;;;;;;;;;14.30;99.90;;;;;;5045684;28;19928;-48
2023/04/07 12:51:58;;;;;;;;;;;14.30;99.90;;;;;;5047128;28;19920;-49
2023/04/07 12:54:23;;;;;;;;;;;14.30;99.90;;;;;;5047353;28;19920;-48
2023/04/07 12:56:49;;;;;;;;;;;14.30;99.90;;;;;;5047268;28;20646;-49
2023/04/07 12:59:14;;;;;;;;;;;14.30;99.90;;;;;;5046946;28;19943;-53
2023/04/07 13:01:40;;;;;;;;;;;14.30;99.90;;;;;;5046858;28;20358;-47
2023/04/07 13:04:06;;;;;;;;;;;14.30;99.90;;;;;;5045977;28;20285;-47
2023/04/07 13:06:32;;;;;;;;;;;14.40;99.90;;;;;;5046506;28;19923;-47
2023/04/07 13:08:57;;;;;;;;;;;14.30;99.90;;;;;;5046475;28;20370;-46
2023/04/07 13:11:23;;;;;;;;;;;14.60;99.90;;;;;;5046854;28;19920;-46
2023/04/07 13:13:49;;;;;;;;;;;14.40;99.90;;;;;;5040070;28;20693;-49
2023/04/07 13:16:14;;;;;;;;;;;14.40;99.90;;;;;;5046754;28;20127;-48
2023/04/07 13:18:40;;;;;;;;;;;14.40;99.90;;;;;;5046181;28;19921;-49
2023/04/07 13:21:06;;;;;;;;;;;14.50;99.90;;;;;;5045161;28;20342;-46
2023/04/07 13:23:31;;;;;;;;;;;14.50;99.90;;;;;;5045999;28;19917;-48
2023/04/07 13:25:57;;;;;;;;;;;14.60;99.90;;;;;;5046170;28;19924;-48
2023/04/07 13:28:22;;;;;;;;;;;14.60;99.90;;;;;;5046746;28;19967;-50
2023/04/07 13:30:48;;;;;;;;;;;14.50;99.90;;;;;;5046952;28;20019;-47
2023/04/07 13:33:14;;;;;;;;;;;14.50;99.90;;;;;;5046845;28;19921;-46
2023/04/07 13:35:40;;;;;;;;;;;14.50;99.90;;;;;;5046354;28;20019;-50
2023/04/07 13:38:05;;;;;;;;;;;14.60;99.90;;;;;;5046239;28;19960;-46
2023/04/07 13:40:31;;;;;;;;;;;14.60;99.90;;;;;;5047078;28;19920;-50
2023/04/07 13:42:57;;;;;;;;;;;14.70;99.90;;;;;;5045954;28;19920;-47
2023/04/07 13:45:22;;;;;;;;;;;14.70;99.90;;;;;;5046832;28;19927;-49
2023/04/07 13:47:48;;;;;;;;;;;14.90;99.90;;;;;;5049028;28;19920;-47
2023/04/07 13:50:14;;;;;;;;;;;15.10;99.90;;;;;;5049293;28;20824;-50
2023/04/07 13:52:40;;;;;;;;;;;15.10;99.90;;;;;;5049812;28;20645;-49
2023/04/07 13:55:06;;;;;;;;;;;15.00;99.90;;;;;;5050340;28;19930;-48
2023/04/07 13:57:31;;;;;;;;;;;15.10;99.90;;;;;;5049969;28;19931;-49
2023/04/07 13:59:57;;;;;;;;;;;15.00;99.90;;;;;;5049860;28;19996;-51
2023/04/07 14:02:23;;;;;;;;;;;14.80;99.90;;;;;;5050375;28;20046;-47